Main page
METAR-TAF:

METAR-TAF

Airports :

Salamanca Airport

Salamanca, Spain

latitude: 40-57N, longitude: 005-30W, elevation: 793 m

Current weather observation

The report was made 18 minutes ago, at 02:30 UTC
Wind 5 kt from the Northeast, varying between North/Northwest and East
Temperature 12°C
Humidity 82%
Pressure 1026 hPa
Visibility 10 km or more
no clouds below 1500 m and no cumulonimbus

METAR: LESA 260230Z AUTO 04005KT 340V080 CAVOK 12/09 Q1026

Time: 04:48 (02:48 UTC)

Forecast

The report was made 3 hours and 48 minutes ago, at 23:00 UTC
Forecast valid from 26 at 00 UTC to 26 at 24 UTC
Wind 10 kt from the East
Visibility 10 km or more
no clouds below 1500 m and no cumulonimbus
Probability 30% :
Temporary
from 26 at 14 UTC to 26 at 20 UTC
Wind 15 kt from variable directions with gusts up to 25 kt
Scattered clouds at a height of 4000 ft, Cumulonimbus.
thunderstorm, rain showers

TAF: LESA 252300Z 2600/2624 08010KT CAVOK TX28/2614Z TN14/2605Z PROB30 TEMPO 2614/2620 VRB15G25KT TS SHRA SCT040CB

Weather observations and forecasts of more than 4000 airports (METAR and TAF reports).

The available stations are represented by yellow and red dots on the map.

Hover mouse over dot to see the name of the station.

Then click to see weather observations and forecasts.

To change the map : click on the green buttons with a black cross to zoom in, on the green button with a dash to zoom out, or on the green arrows for adjacent maps.


METAR-TAF: